Time;durP1;ratioP1;P1;durP2;ratioP2;P2;SDS_P1;SDS_P2;PMS_P1;PMS_P2;Temp;Humidity;BMP_temperature;BMP_pressure;BME280_temperature;BME280_humidity;BME280_pressure;Samples;Min_cycle;Max_cycle;Signal;HPM_P1;HPM_P2
2023/04/25 00:00:18;;;;;;;2.75;2.55;;;9.80;99.90;;;;;;4896368;29;20410;-88
2023/04/25 00:02:43;;;;;;;3.63;2.50;;;10.10;99.90;;;;;;4894620;29;20217;-88
2023/04/25 00:05:09;;;;;;;2.00;1.90;;;9.80;99.90;;;;;;4893961;29;20253;-88
2023/04/25 00:07:35;;;;;;;2.13;1.87;;;9.90;99.90;;;;;;4900604;29;20191;-88
2023/04/25 00:10:00;;;;;;;1.90;1.43;;;10.00;99.90;;;;;;4899871;29;20188;-88
2023/04/25 00:12:28;;;;;;;2.60;2.40;;;10.20;99.90;;;;;;4898696;29;20620;-88
2023/04/25 00:14:56;;;;;;;2.47;2.28;;;10.00;99.90;;;;;;4902518;29;20198;-88
2023/04/25 00:17:24;;;;;;;3.75;2.60;;;10.40;99.90;;;;;;4900112;29;20192;-88
2023/04/25 00:19:50;;;;;;;2.70;2.50;;;10.00;99.90;;;;;;4903893;29;20192;-88
2023/04/25 00:22:16;;;;;;;2.30;2.10;;;10.50;99.90;;;;;;4916804;29;20380;-88
2023/04/25 00:24:41;;;;;;;2.83;2.63;;;10.20;99.90;;;;;;4901901;29;20477;-88
2023/04/25 00:27:07;;;;;;;2.80;2.60;;;10.50;99.90;;;;;;4903094;29;20184;-88
2023/04/25 00:29:33;;;;;;;2.70;2.50;;;10.00;99.90;;;;;;4901809;29;20189;-88
2023/04/25 00:31:59;;;;;;;3.35;2.40;;;10.30;99.90;;;;;;4910980;29;20225;-88
2023/04/25 00:34:25;;;;;;;2.90;2.70;;;10.10;99.90;;;;;;4917392;29;20189;-87
2023/04/25 00:36:50;;;;;;;3.27;2.47;;;9.90;99.90;;;;;;4905731;29;20191;-88
2023/04/25 00:39:16;;;;;;;3.17;2.73;;;10.10;99.90;;;;;;4907594;29;20697;-88
2023/04/25 00:41:41;;;;;;;2.60;2.40;;;9.90;99.90;;;;;;4916680;29;20209;-88
2023/04/25 00:44:11;;;;;;;2.30;2.10;;;10.20;99.90;;;;;;4913591;29;20200;-88
2023/04/25 00:46:36;;;;;;;3.00;2.25;;;9.70;99.90;;;;;;4916460;29;20217;-88
2023/04/25 00:49:02;;;;;;;3.13;2.83;;;10.10;99.90;;;;;;4912726;29;20200;-87
2023/04/25 00:51:27;;;;;;;2.80;2.20;;;9.80;99.90;;;;;;4913641;29;20222;-87
2023/04/25 00:53:53;;;;;;;2.70;2.50;;;10.00;99.90;;;;;;4908671;29;20245;-87
2023/04/25 00:56:20;;;;;;;2.23;2.03;;;10.20;99.90;;;;;;4906345;29;20535;-88
2023/04/25 00:58:45;;;;;;;2.50;2.30;;;9.90;99.90;;;;;;4899099;29;20451;-88
2023/04/25 01:01:12;;;;;;;2.50;2.30;;;10.00;99.90;;;;;;4914056;29;20197;-88
2023/04/25 01:03:40;;;;;;;2.50;2.30;;;10.00;99.90;;;;;;4910539;29;20197;-87
2023/04/25 01:06:08;;;;;;;3.10;2.80;;;10.10;99.90;;;;;;4917681;29;20196;-88
2023/04/25 01:08:35;;;;;;;2.60;2.40;;;10.20;99.90;;;;;;4919468;29;20183;-88
2023/04/25 01:11:00;;;;;;;2.70;2.50;;;9.80;99.90;;;;;;4923042;29;20479;-87
2023/04/25 01:13:26;;;;;;;2.80;2.23;;;9.90;99.90;;;;;;4930270;29;20215;-87
2023/04/25 01:15:52;;;;;;;3.57;2.00;;;10.10;99.90;;;;;;4919080;29;20183;-87
2023/04/25 01:18:20;;;;;;;5.17;2.97;;;10.10;99.90;;;;;;4923963;29;20444;-87
2023/04/25 01:20:46;;;;;;;2.85;2.33;;;9.60;99.90;;;;;;4915666;29;20195;-88
2023/04/25 01:23:13;;;;;;;2.55;2.35;;;9.60;99.90;;;;;;4918618;29;20211;-88
2023/04/25 01:25:39;;;;;;;2.58;2.38;;;9.90;99.90;;;;;;4915889;29;20197;-88
2023/04/25 01:28:05;;;;;;;2.58;2.20;;;9.80;99.90;;;;;;4922914;29;20188;-87
2023/04/25 01:30:30;;;;;;;2.83;2.53;;;10.40;99.90;;;;;;4919314;29;20205;-88
2023/04/25 01:32:56;;;;;;;2.57;2.30;;;10.40;99.90;;;;;;4919254;29;20446;-87
2023/04/25 01:35:23;;;;;;;2.73;2.53;;;9.90;99.90;;;;;;4911547;29;20193;-88
2023/04/25 01:37:49;;;;;;;3.17;2.60;;;10.10;99.90;;;;;;4893501;29;20420;-88
2023/04/25 01:40:15;;;;;;;3.57;3.27;;;10.20;99.90;;;;;;4897901;29;20197;-88
2023/04/25 01:42:43;;;;;;;2.97;2.70;;;10.20;99.90;;;;;;4908239;29;21075;-88
2023/04/25 01:45:10;;;;;;;2.78;2.55;;;10.20;99.90;;;;;;4899273;29;20185;-88
2023/04/25 01:47:36;;;;;;;2.83;2.63;;;9.80;99.90;;;;;;4898758;29;20255;-88
2023/04/25 01:50:06;;;;;;;2.95;2.75;;;9.20;99.90;;;;;;4898217;29;20280;-87
2023/04/25 01:52:32;;;;;;;3.17;2.70;;;9.70;99.90;;;;;;4893843;29;20350;-87
2023/04/25 01:54:59;;;;;;;2.50;2.30;;;9.70;99.90;;;;;;4893922;29;20196;-88
2023/04/25 01:57:25;;;;;;;2.85;2.47;;;9.10;99.90;;;;;;4898282;29;20197;-88
2023/04/25 01:59:50;;;;;;;3.03;2.80;;;9.90;99.90;;;;;;4900920;29;20176;-87
2023/04/25 02:02:16;;;;;;;2.63;2.43;;;9.60;99.90;;;;;;4912522;29;20221;-88
2023/04/25 02:04:42;;;;;;;2.73;2.40;;;9.40;99.90;;;;;;4903719;29;20437;-88
2023/04/25 02:07:07;;;;;;;2.60;2.40;;;9.50;99.90;;;;;;4904617;29;20200;-87
2023/04/25 02:09:33;;;;;;;2.93;2.60;;;9.70;99.90;;;;;;4905140;29;20206;-88
2023/04/25 02:11:58;;;;;;;2.77;2.53;;;9.90;99.90;;;;;;4898436;29;20294;-88
2023/04/25 02:14:24;;;;;;;2.87;2.67;;;9.50;99.90;;;;;;4903615;29;20198;-88
2023/04/25 02:16:51;;;;;;;2.07;1.97;;;9.70;99.90;;;;;;4900342;29;20191;-87
2023/04/25 02:19:16;;;;;;;2.53;2.33;;;9.70;99.90;;;;;;4897564;29;20186;-87
2023/04/25 02:21:42;;;;;;;2.50;2.30;;;9.80;99.90;;;;;;4898022;29;20220;-87
2023/04/25 02:24:08;;;;;;;3.23;2.53;;;10.20;99.90;;;;;;4895061;29;20194;-88
2023/04/25 02:26:33;;;;;;;2.33;2.13;;;10.20;99.90;;;;;;4897392;29;20669;-88
2023/04/25 02:28:59;;;;;;;2.80;2.50;;;9.70;99.90;;;;;;4904204;29;20508;-87
2023/04/25 02:31:25;;;;;;;2.92;2.72;;;9.60;99.90;;;;;;4918068;29;20246;-87
2023/04/25 02:33:51;;;;;;;3.03;2.83;;;9.40;99.90;;;;;;4902705;29;20256;-87
2023/04/25 02:36:16;;;;;;;3.73;2.60;;;10.00;99.90;;;;;;4898873;29;20185;-87
2023/04/25 02:38:42;;;;;;;3.00;2.70;;;9.50;99.90;;;;;;4899257;29;20243;-87
2023/04/25 02:41:07;;;;;;;3.80;3.23;;;9.70;99.90;;;;;;4893228;29;20212;-88
2023/04/25 02:43:33;;;;;;;6.17;2.63;;;9.50;99.90;;;;;;4897062;29;20191;-88
2023/04/25 02:45:58;;;;;;;3.13;2.20;;;9.50;99.90;;;;;;4897402;29;20208;-88
2023/04/25 02:48:24;;;;;;;4.53;2.50;;;10.10;99.90;;;;;;4897926;29;20537;-88
2023/04/25 02:50:49;;;;;;;2.70;2.50;;;9.40;99.90;;;;;;4896433;29;20649;-88
2023/04/25 02:53:15;;;;;;;3.63;2.83;;;9.40;99.90;;;;;;4893485;29;20278;-88
2023/04/25 02:55:40;;;;;;;2.27;2.17;;;9.80;99.90;;;;;;4896983;29;20198;-88
2023/04/25 02:58:06;;;;;;;2.27;2.10;;;9.30;99.90;;;;;;4898966;29;20201;-88
2023/04/25 03:00:31;;;;;;;2.27;2.07;;;9.30;99.90;;;;;;4896058;29;20270;-88
2023/04/25 03:02:57;;;;;;;2.37;1.80;;;9.40;99.90;;;;;;4894947;29;20203;-88
2023/04/25 03:05:23;;;;;;;2.80;2.60;;;9.50;99.90;;;;;;4902146;29;20707;-88
2023/04/25 03:07:48;;;;;;;3.30;2.50;;;9.60;99.90;;;;;;4894539;29;20273;-88
2023/04/25 03:10:14;;;;;;;2.57;2.37;;;8.90;99.90;;;;;;4904021;29;20183;-88
2023/04/25 03:12:39;;;;;;;3.17;2.77;;;9.40;99.90;;;;;;4895106;29;20222;-88
2023/04/25 03:15:05;;;;;;;3.83;3.07;;;9.70;99.90;;;;;;4891003;29;20180;-88
2023/04/25 03:17:31;;;;;;;2.80;2.60;;;9.50;99.90;;;;;;4895721;29;20213;-88
2023/04/25 03:19:57;;;;;;;4.50;2.53;;;9.80;99.90;;;;;;4900821;29;20188;-88
2023/04/25 03:22:23;;;;;;;3.10;2.80;;;9.20;99.90;;;;;;4892247;29;20228;-88
2023/04/25 03:24:49;;;;;;;3.13;2.57;;;9.80;99.90;;;;;;4891830;29;20196;-88
2023/04/25 03:27:15;;;;;;;2.83;2.63;;;9.30;99.90;;;;;;4903014;29;20452;-88
2023/04/25 03:29:41;;;;;;;4.70;2.90;;;9.40;99.90;;;;;;4902107;29;20661;-88
2023/04/25 03:32:06;;;;;;;2.87;2.53;;;9.10;99.90;;;;;;4898825;29;20231;-87
2023/04/25 03:34:32;;;;;;;4.17;2.60;;;9.10;99.90;;;;;;4894885;29;20818;-88
2023/04/25 03:36:57;;;;;;;3.17;2.90;;;8.90;99.90;;;;;;4898049;29;20183;-87
2023/04/25 03:39:23;;;;;;;2.90;2.63;;;9.50;99.90;;;;;;4894424;29;20258;-87
2023/04/25 03:41:48;;;;;;;4.73;3.20;;;8.80;99.90;;;;;;4898037;29;20215;-88
2023/04/25 03:44:14;;;;;;;4.57;2.80;;;9.30;99.90;;;;;;4892824;29;20190;-88
2023/04/25 03:46:40;;;;;;;5.10;3.20;;;9.10;99.90;;;;;;4897166;29;20203;-88
2023/04/25 03:49:05;;;;;;;4.23;2.90;;;9.20;99.90;;;;;;4899642;29;20623;-88
2023/04/25 03:51:31;;;;;;;3.50;3.03;;;8.90;99.90;;;;;;4900252;29;20808;-88
2023/04/25 03:53:56;;;;;;;4.67;2.93;;;9.60;99.90;;;;;;4894315;29;20688;-88
2023/04/25 03:56:22;;;;;;;3.47;3.17;;;9.10;99.90;;;;;;4935054;29;20184;-87
2023/04/25 03:58:47;;;;;;;3.30;2.87;;;9.20;99.90;;;;;;4919238;29;20184;-88
2023/04/25 04:01:13;;;;;;;3.73;3.13;;;9.10;99.90;;;;;;4915673;29;20227;-88
2023/04/25 04:03:38;;;;;;;4.10;3.80;;;9.00;99.90;;;;;;4901170;29;20205;-88
2023/04/25 04:06:05;;;;;;;3.43;3.13;;;9.20;99.90;;;;;;4895434;29;20649;-88
2023/04/25 04:08:32;;;;;;;3.55;3.25;;;8.70;99.90;;;;;;4897315;29;20660;-88
2023/04/25 04:10:58;;;;;;;3.17;2.80;;;8.80;99.90;;;;;;4894869;29;20242;-88
2023/04/25 04:13:26;;;;;;;3.20;2.90;;;9.20;99.90;;;;;;4895986;29;21006;-87
2023/04/25 04:15:52;;;;;;;3.22;2.92;;;9.20;99.90;;;;;;4904812;29;20175;-88
2023/04/25 04:18:17;;;;;;;2.90;2.50;;;8.50;99.90;;;;;;4907972;29;20194;-86
2023/04/25 04:20:43;;;;;;;3.90;3.03;;;8.50;99.90;;;;;;4897039;29;20644;-87
2023/04/25 04:23:08;;;;;;;3.93;3.20;;;9.10;99.90;;;;;;4896851;29;20232;-87
2023/04/25 04:25:34;;;;;;;6.00;4.17;;;8.80;99.90;;;;;;4892134;29;20218;-87
2023/04/25 04:28:00;;;;;;;2.90;2.70;;;8.60;99.90;;;;;;4894913;29;20213;-87
2023/04/25 04:30:29;;;;;;;4.43;3.42;;;8.60;99.90;;;;;;4891597;29;20195;-83
2023/04/25 04:32:55;;;;;;;3.25;2.95;;;9.20;99.90;;;;;;4897395;29;20267;-85
2023/04/25 04:35:22;;;;;;;3.20;2.55;;;8.70;99.90;;;;;;4898121;29;20188;-85
2023/04/25 04:37:47;;;;;;;3.38;2.85;;;8.80;99.90;;;;;;4893043;29;20712;-86
2023/04/25 04:40:15;;;;;;;3.37;3.17;;;8.90;99.90;;;;;;4898820;29;20184;-82
2023/04/25 04:42:42;;;;;;;3.45;3.05;;;8.90;99.90;;;;;;4903963;29;20234;-83
2023/04/25 04:45:08;;;;;;;3.22;2.95;;;9.00;99.90;;;;;;4901571;29;20188;-85
2023/04/25 04:47:36;;;;;;;3.55;2.72;;;9.10;99.90;;;;;;4926362;29;20221;-84
2023/04/25 04:50:07;;;;;;;4.50;3.70;;;9.10;99.90;;;;;;4915417;29;20191;-82
2023/04/25 04:52:32;;;;;;;3.50;3.20;;;9.00;99.90;;;;;;4907626;29;20215;-85
2023/04/25 04:54:58;;;;;;;4.60;3.23;;;9.00;99.90;;;;;;4906469;29;20199;-84
2023/04/25 04:57:23;;;;;;;3.83;3.43;;;9.00;99.90;;;;;;4906406;29;20199;-82
2023/04/25 04:59:50;;;;;;;3.13;2.83;;;9.40;99.90;;;;;;4909082;29;20195;-83
2023/04/25 05:02:15;;;;;;;5.00;3.33;;;8.90;99.90;;;;;;4905302;29;20248;-83
2023/04/25 05:04:41;;;;;;;4.30;3.37;;;9.30;99.90;;;;;;4900606;29;20195;-84
2023/04/25 05:07:06;;;;;;;4.73;3.60;;;9.40;99.90;;;;;;4921589;29;20199;-84
2023/04/25 05:09:32;;;;;;;3.80;3.10;;;9.20;99.90;;;;;;4923787;29;20196;-84
2023/04/25 05:11:57;;;;;;;7.60;3.63;;;9.40;99.90;;;;;;4904513;29;20211;-82
2023/04/25 05:14:23;;;;;;;10.70;3.90;;;9.20;99.90;;;;;;4904220;29;20200;-83
2023/04/25 05:16:49;;;;;;;3.80;3.20;;;9.30;99.90;;;;;;4908557;29;20193;-83
2023/04/25 05:19:14;;;;;;;4.93;4.17;;;9.30;99.90;;;;;;4912024;29;20712;-83
2023/04/25 05:21:40;;;;;;;4.10;3.77;;;9.80;99.90;;;;;;4910982;29;20739;-83
2023/04/25 05:24:05;;;;;;;4.93;3.60;;;9.60;99.90;;;;;;4908814;29;20189;-83
2023/04/25 05:26:31;;;;;;;3.57;3.00;;;10.00;99.90;;;;;;4907557;29;20199;-84
2023/04/25 05:29:00;;;;;;;4.00;2.90;;;9.70;99.90;;;;;;4907771;29;20193;-83
2023/04/25 05:31:27;;;;;;;6.78;5.63;;;9.90;99.90;;;;;;4900963;29;20252;-86
2023/04/25 05:33:52;;;;;;;5.20;4.70;;;10.00;99.90;;;;;;4902376;29;20246;-81
2023/04/25 05:36:19;;;;;;;4.77;3.23;;;10.50;99.90;;;;;;4904299;29;20200;-82
2023/04/25 05:38:45;;;;;;;3.70;3.25;;;10.00;99.90;;;;;;4914363;29;20252;-81
2023/04/25 05:41:10;;;;;;;4.77;3.43;;;10.20;99.90;;;;;;4908572;29;20319;-83
2023/04/25 05:43:36;;;;;;;4.30;3.60;;;10.20;99.90;;;;;;4908796;29;20457;-84
2023/04/25 05:46:01;;;;;;;4.40;4.00;;;10.50;99.90;;;;;;4902627;29;20204;-86
2023/04/25 05:48:27;;;;;;;4.23;3.60;;;11.00;99.90;;;;;;4904164;29;20258;-83
2023/04/25 05:50:53;;;;;;;3.60;3.30;;;10.60;99.90;;;;;;4904021;29;20236;-85
2023/04/25 05:53:19;;;;;;;3.80;3.40;;;10.60;99.90;;;;;;4904886;29;20215;-85
2023/04/25 05:55:45;;;;;;;4.30;3.83;;;11.00;99.90;;;;;;4908072;29;20189;-85
2023/04/25 05:58:10;;;;;;;3.67;3.37;;;10.60;99.90;;;;;;4899562;29;20494;-86
2023/04/25 06:00:36;;;;;;;2.83;2.53;;;10.80;99.90;;;;;;4895543;29;20523;-86
2023/04/25 06:03:02;;;;;;;3.00;2.50;;;10.70;99.90;;;;;;4898829;29;20224;-87
2023/04/25 06:05:27;;;;;;;3.47;2.90;;;10.60;99.90;;;;;;4897784;29;20196;-88
2023/04/25 06:07:53;;;;;;;4.13;3.30;;;10.80;99.90;;;;;;4896959;29;20193;-87
2023/04/25 06:10:18;;;;;;;3.07;2.77;;;10.90;99.90;;;;;;4895198;29;20198;-85
2023/04/25 06:12:44;;;;;;;4.70;3.30;;;11.70;99.90;;;;;;4893996;29;20366;-83
2023/04/25 06:15:10;;;;;;;3.10;2.80;;;10.80;99.90;;;;;;4912938;29;20202;-82
2023/04/25 06:17:36;;;;;;;2.87;2.63;;;10.60;99.90;;;;;;4910399;29;20269;-83
2023/04/25 06:20:03;;;;;;;3.30;3.00;;;10.70;99.90;;;;;;4900380;29;20416;-80
2023/04/25 06:22:29;;;;;;;4.00;3.15;;;10.20;99.90;;;;;;4909730;29;20280;-85
2023/04/25 06:24:57;;;;;;;3.60;3.30;;;10.30;99.90;;;;;;4899399;29;20188;-83
2023/04/25 06:27:22;;;;;;;4.97;3.75;;;10.70;99.90;;;;;;4907680;29;20210;-81
2023/04/25 06:29:48;;;;;;;5.80;3.20;;;10.10;99.90;;;;;;4904631;29;20193;-88
2023/04/25 06:32:14;;;;;;;3.80;3.33;;;;;;;;;;4896802;29;20213;-85
2023/04/25 06:34:39;;;;;;;3.10;2.90;;;10.40;99.90;;;;;;4912564;29;20200;-86
2023/04/25 06:37:05;;;;;;;3.20;2.90;;;10.80;99.90;;;;;;4901711;29;20190;-86
2023/04/25 06:39:30;;;;;;;3.80;3.50;;;10.40;99.90;;;;;;4901185;29;20181;-85
2023/04/25 06:41:56;;;;;;;3.40;3.10;;;10.60;99.90;;;;;;4902333;29;20677;-85
2023/04/25 06:44:23;;;;;;;6.37;3.13;;;10.80;99.90;;;;;;4896086;29;20196;-85
2023/04/25 06:46:49;;;;;;;3.22;2.92;;;10.90;99.90;;;;;;4899349;29;20219;-87
2023/04/25 06:49:15;;;;;;;3.13;2.60;;;10.70;99.90;;;;;;4899185;29;20249;-87
2023/04/25 06:51:41;;;;;;;3.60;3.30;;;11.00;99.90;;;;;;4896638;29;20299;-85
2023/04/25 06:54:06;;;;;;;3.37;3.07;;;10.50;99.90;;;;;;4899946;29;20489;-85
2023/04/25 06:56:32;;;;;;;3.87;3.47;;;10.70;99.90;;;;;;4911971;29;20550;-85
2023/04/25 06:58:57;;;;;;;3.53;3.20;;;10.60;99.90;;;;;;4902195;29;20190;-87
2023/04/25 07:01:23;;;;;;;2.83;2.40;;;12.20;99.90;;;;;;4893584;29;20213;-86
2023/04/25 07:03:49;;;;;;;3.27;3.00;;;10.50;99.90;;;;;;4897090;29;20638;-86
2023/04/25 07:06:14;;;;;;;3.93;3.57;;;10.30;99.90;;;;;;4894883;29;20189;-88
2023/04/25 07:08:40;;;;;;;3.33;3.03;;;10.20;99.90;;;;;;4897057;29;20242;-88
2023/04/25 07:11:05;;;;;;;4.00;3.63;;;10.40;99.90;;;;;;4894640;29;20283;-86
2023/04/25 07:13:31;;;;;;;3.73;3.43;;;10.00;99.90;;;;;;4910252;29;20223;-85
2023/04/25 07:15:56;;;;;;;3.10;2.80;;;10.60;99.90;;;;;;4895985;29;20199;-89
2023/04/25 07:18:22;;;;;;;4.23;3.93;;;10.70;99.90;;;;;;4896989;29;20381;-87
2023/04/25 07:20:47;;;;;;;4.93;3.43;;;10.20;99.90;;;;;;4909972;29;20221;-89
2023/04/25 07:23:13;;;;;;;4.77;3.50;;;10.00;99.90;;;;;;4924916;23;20231;-86
2023/04/25 07:25:39;;;;;;;5.80;5.23;;;10.20;99.90;;;;;;4919269;29;20191;-85
2023/04/25 07:28:04;;;;;;;3.90;3.60;;;9.90;99.90;;;;;;4915242;29;20219;-87
2023/04/25 07:30:30;;;;;;;5.80;4.03;;;9.70;99.90;;;;;;4912360;29;20476;-85
2023/04/25 07:32:56;;;;;;;8.60;7.17;;;9.70;99.90;;;;;;4916751;29;20306;-84
2023/04/25 07:35:21;;;;;;;5.67;4.63;;;9.80;99.90;;;;;;4915732;29;20980;-86
2023/04/25 07:37:50;;;;;;;5.60;5.10;;;9.90;99.90;;;;;;4920496;29;20234;-85
2023/04/25 07:40:16;;;;;;;7.03;5.82;;;9.90;99.90;;;;;;4914021;29;20267;-85
2023/04/25 07:42:42;;;;;;;6.47;4.53;;;9.70;99.90;;;;;;4914471;29;20212;-85
2023/04/25 07:45:09;;;;;;;4.43;4.10;;;9.40;99.90;;;;;;4915632;29;20183;-85
2023/04/25 07:47:34;;;;;;;4.30;3.90;;;9.70;99.90;;;;;;4931453;29;20279;-86
2023/04/25 07:50:00;;;;;;;6.73;4.60;;;9.70;99.90;;;;;;4913941;29;20283;-85
2023/04/25 07:52:26;;;;;;;5.30;4.27;;;9.80;99.90;;;;;;4919887;29;20494;-85
2023/04/25 07:54:51;;;;;;;4.37;3.97;;;9.70;99.90;;;;;;4913630;29;20208;-85
2023/04/25 07:57:18;;;;;;;5.33;4.83;;;9.90;99.90;;;;;;4915079;29;20191;-85
2023/04/25 07:59:43;;;;;;;5.40;4.90;;;9.60;99.90;;;;;;4916773;29;20191;-87
2023/04/25 08:02:09;;;;;;;3.70;3.40;;;10.10;99.90;;;;;;4917048;29;20235;-86
2023/04/25 08:04:34;;;;;;;4.57;4.17;;;9.30;99.90;;;;;;4917916;29;20204;-86
2023/04/25 08:07:00;;;;;;;4.20;3.80;;;10.00;99.90;;;;;;4917695;29;20265;-85
2023/04/25 08:09:26;;;;;;;4.13;3.73;;;9.30;99.90;;;;;;4915373;29;20183;-87
2023/04/25 08:11:52;;;;;;;4.73;4.30;;;9.60;99.90;;;;;;4923320;29;20523;-85
2023/04/25 08:14:17;;;;;;;5.57;4.40;;;9.80;99.90;;;;;;4921213;29;20600;-86
2023/04/25 08:16:43;;;;;;;4.73;4.20;;;9.80;99.90;;;;;;4915832;29;20192;-85
2023/04/25 08:19:10;;;;;;;5.40;4.40;;;9.80;99.90;;;;;;4915935;29;20659;-86
2023/04/25 08:21:36;;;;;;;5.20;4.70;;;9.20;99.90;;;;;;4912497;29;20261;-87
2023/04/25 08:24:01;;;;;;;8.00;4.47;;;9.60;99.90;;;;;;4915322;29;20195;-86
2023/04/25 08:26:28;;;;;;;4.70;3.60;;;9.40;99.90;;;;;;4915956;29;20216;-87
2023/04/25 08:28:54;;;;;;;4.60;3.95;;;9.80;99.90;;;;;;4918255;29;20212;-85
2023/04/25 08:31:20;;;;;;;6.00;5.00;;;10.00;99.90;;;;;;4930284;29;20218;-85
2023/04/25 08:33:46;;;;;;;4.78;4.28;;;9.60;99.90;;;;;;4918115;29;20210;-87
2023/04/25 08:36:11;;;;;;;6.10;4.50;;;10.00;99.90;;;;;;4917623;29;20358;-87
2023/04/25 08:38:37;;;;;;;4.40;4.00;;;9.60;99.90;;;;;;4912929;29;20240;-90
2023/04/25 08:41:05;;;;;;;5.10;4.60;;;9.40;99.90;;;;;;4913745;29;20572;-88
2023/04/25 08:43:31;;;;;;;5.28;3.85;;;9.50;99.90;;;;;;4931398;29;20437;-86
2023/04/25 08:46:00;;;;;;;6.50;4.50;;;9.30;99.90;;;;;;4916464;29;20270;-86
2023/04/25 08:48:30;;;;;;;5.63;5.13;;;9.80;99.90;;;;;;4923467;29;20198;-85
2023/04/25 08:50:56;;;;;;;5.60;4.20;;;9.80;99.90;;;;;;4923596;29;20226;-86
2023/04/25 08:53:26;;;;;;;5.93;4.25;;;9.30;99.90;;;;;;4919814;29;20223;-84
2023/04/25 08:55:54;;;;;;;6.55;5.90;;;9.40;99.90;;;;;;4912809;29;20220;-84
2023/04/25 08:58:20;;;;;;;4.65;4.25;;;9.80;99.90;;;;;;4921188;29;20253;-88
2023/04/25 09:00:47;;;;;;;5.18;4.57;;;9.90;99.90;;;;;;4933542;29;20195;-87
2023/04/25 09:03:12;;;;;;;7.93;4.90;;;10.10;99.90;;;;;;4914239;29;20784;-89
2023/04/25 09:05:40;;;;;;;5.77;5.00;;;10.20;99.90;;;;;;4928955;29;20202;-89
2023/04/25 09:08:06;;;;;;;5.70;5.18;;;10.00;99.90;;;;;;4925972;29;20192;-88
2023/04/25 09:10:31;;;;;;;5.03;4.17;;;10.50;99.90;;;;;;4920430;29;20197;-88
2023/04/25 09:13:08;;;;;;;4.80;4.10;;;9.90;99.90;;;;;;4918030;29;20482;-88
2023/04/25 09:15:56;;;;;;;4.00;3.60;;;9.10;99.90;;;;;;4927264;29;20190;-87
2023/04/25 09:18:32;;;;;;;8.48;4.72;;;9.80;99.90;;;;;;4929645;29;20260;-87
2023/04/25 09:21:08;;;;;;;4.25;3.85;;;9.20;99.90;;;;;;4923173;29;20221;-88
2023/04/25 09:24:00;;;;;;;4.97;4.57;;;10.00;99.90;;;;;;4930358;29;20204;-87
2023/04/25 09:26:26;;;;;;;4.80;4.30;;;10.30;99.90;;;;;;4932578;28;20199;-87
2023/04/25 09:29:06;;;;;;;5.53;4.93;;;9.60;99.90;;;;;;4922492;29;20190;-86
2023/04/25 09:31:33;;;;;;;4.97;4.60;;;9.90;99.90;;;;;;4919283;29;20527;-87
2023/04/25 09:34:02;;;;;;;6.38;5.40;;;9.80;99.90;;;;;;4927455;29;20215;-87
2023/04/25 09:36:30;;;;;;;5.20;4.70;;;10.00;99.90;;;;;;4918510;29;20656;-88
2023/04/25 09:38:56;;;;;;;6.65;4.93;;;9.60;99.90;;;;;;4918764;29;20187;-88
2023/04/25 09:41:24;;;;;;;5.20;4.70;;;9.90;99.90;;;;;;4920165;29;20269;-87
2023/04/25 09:43:50;;;;;;;5.30;4.80;;;9.70;99.90;;;;;;4913246;29;20215;-86
2023/04/25 09:46:18;;;;;;;4.80;4.40;;;10.10;99.90;;;;;;4921561;29;20197;-86
2023/04/25 09:48:49;;;;;;;5.05;3.95;;;9.80;99.90;;;;;;4920756;29;20798;-86
2023/04/25 09:51:15;;;;;;;4.10;3.72;;;9.70;99.90;;;;;;4916783;29;20262;-86
2023/04/25 09:53:46;;;;;;;5.13;4.50;;;9.70;99.90;;;;;;4922498;29;20213;-87
2023/04/25 09:56:13;;;;;;;4.80;4.10;;;9.40;99.90;;;;;;4918667;29;20180;-86
2023/04/25 09:58:40;;;;;;;5.10;4.50;;;10.10;99.90;;;;;;4919039;29;20262;-86
2023/04/25 10:01:07;;;;;;;4.57;4.10;;;9.90;99.90;;;;;;4914733;29;20307;-86
2023/04/25 10:03:35;;;;;;;4.43;4.00;;;9.80;99.90;;;;;;4915886;29;20277;-87
2023/04/25 10:06:07;;;;;;;4.63;4.15;;;9.50;99.90;;;;;;4919308;29;20180;-86
2023/04/25 10:08:36;;;;;;;3.30;3.10;;;9.70;99.90;;;;;;4909969;29;20219;-87
2023/04/25 10:11:04;;;;;;;3.50;3.20;;;9.10;99.90;;;;;;4917817;29;20214;-87
2023/04/25 10:13:31;;;;;;;4.63;3.17;;;9.60;99.90;;;;;;4913314;29;20212;-87
2023/04/25 10:16:01;;;;;;;2.38;2.17;;;9.20;99.90;;;;;;4926303;29;20180;-86
2023/04/25 10:18:28;;;;;;;4.15;2.10;;;9.70;99.90;;;;;;4930680;29;20188;-85
2023/04/25 10:20:56;;;;;;;2.40;2.20;;;9.70;99.90;;;;;;4928691;29;20183;-86
2023/04/25 10:23:22;;;;;;;2.40;2.20;;;9.10;99.90;;;;;;4915295;29;20202;-86
2023/04/25 10:25:50;;;;;;;2.30;1.85;;;9.70;99.90;;;;;;4919970;29;20193;-86
2023/04/25 10:28:15;;;;;;;2.30;2.10;;;10.00;99.90;;;;;;4916788;29;20192;-86
2023/04/25 10:30:57;;;;;;;2.30;2.10;;;9.80;99.90;;;;;;4916162;29;20190;-86
2023/04/25 10:33:33;;;;;;;2.30;2.00;;;9.40;99.90;;;;;;4917440;29;20222;-86
2023/04/25 10:36:08;;;;;;;2.55;2.10;;;9.80;99.90;;;;;;4919296;29;20266;-87
2023/04/25 10:38:33;;;;;;;2.25;2.05;;;9.60;99.90;;;;;;4920237;29;20552;-87
2023/04/25 10:41:04;;;;;;;2.33;1.80;;;9.80;99.90;;;;;;4921473;29;20339;-86
2023/04/25 10:43:47;;;;;;;2.30;2.08;;;10.00;99.90;;;;;;4914816;29;20525;-88
2023/04/25 10:46:23;;;;;;;3.45;2.33;;;9.70;99.90;;;;;;4915511;29;20183;-86
2023/04/25 10:48:51;;;;;;;1.65;1.55;;;9.80;99.90;;;;;;4917335;29;20197;-88
2023/04/25 10:51:25;;;;;;;2.03;1.70;;;9.90;99.90;;;;;;4914698;29;20214;-88
2023/04/25 10:54:03;;;;;;;1.52;1.23;;;9.10;99.90;;;;;;4914089;29;20203;-88
2023/04/25 10:56:37;;;;;;;2.65;1.80;;;9.40;99.90;;;;;;4915567;29;20184;-89
2023/04/25 10:59:13;;;;;;;2.80;2.45;;;9.40;99.90;;;;;;4915547;29;20205;-88
2023/04/25 11:01:40;;;;;;;4.40;3.38;;;9.50;99.90;;;;;;4915471;29;20726;-90
2023/04/25 11:04:18;;;;;;;3.75;3.45;;;9.60;99.90;;;;;;4915472;29;20199;-90
2023/04/25 11:07:26;;;;;;;3.70;3.40;;;9.00;99.90;;;;;;4914460;29;20229;-88
2023/04/25 11:09:51;;;;;;;3.65;3.20;;;9.30;99.90;;;;;;4912283;29;20187;-87
2023/04/25 11:12:17;;;;;;;4.07;3.67;;;9.20;99.90;;;;;;4914131;29;20250;-86
2023/04/25 11:14:43;;;;;;;4.20;3.20;;;9.10;99.90;;;;;;4914037;29;22273;-86
2023/04/25 11:17:10;;;;;;;3.00;2.70;;;9.10;99.90;;;;;;4912373;29;20417;-86
2023/04/25 11:19:35;;;;;;;6.28;3.33;;;8.90;99.90;;;;;;4918055;29;20189;-86
2023/04/25 11:22:02;;;;;;;2.83;2.63;;;8.80;99.90;;;;;;4916079;29;20219;-87
2023/04/25 11:24:32;;;;;;;2.97;2.67;;;9.50;99.90;;;;;;4911819;29;20194;-87
2023/04/25 11:26:59;;;;;;;3.38;2.83;;;8.90;99.90;;;;;;4914023;29;20197;-85
2023/04/25 11:29:29;;;;;;;3.58;3.28;;;9.70;99.90;;;;;;4912081;29;20596;-85
2023/04/25 11:31:58;;;;;;;2.90;2.70;;;9.10;99.90;;;;;;4908779;29;20739;-88
2023/04/25 11:34:25;;;;;;;1.70;1.60;;;9.50;99.90;;;;;;4917628;29;20439;-87
2023/04/25 11:36:51;;;;;;;2.40;2.20;;;9.80;99.90;;;;;;4917201;29;20208;-89
2023/04/25 11:39:18;;;;;;;2.58;2.30;;;9.60;99.90;;;;;;4916277;29;20638;-89
2023/04/25 11:41:44;;;;;;;3.05;2.75;;;9.90;99.90;;;;;;4919948;29;20211;-87
2023/04/25 11:44:10;;;;;;;2.37;2.00;;;10.00;99.90;;;;;;4912851;29;20236;-87
2023/04/25 11:46:35;;;;;;;8.20;5.90;;;10.20;99.90;;;;;;4916728;29;20185;-87
2023/04/25 11:49:01;;;;;;;3.23;1.90;;;10.20;99.90;;;;;;4915286;29;20212;-87
2023/04/25 11:51:27;;;;;;;2.53;2.30;;;10.40;99.90;;;;;;4935323;28;20266;-87
2023/04/25 11:53:53;;;;;;;3.17;2.87;;;10.50;99.90;;;;;;4911598;29;20283;-88
2023/04/25 11:56:20;;;;;;;3.00;2.80;;;10.10;99.90;;;;;;4917694;29;20328;-88
2023/04/25 11:58:58;;;;;;;3.30;3.00;;;10.30;99.90;;;;;;4918858;29;20185;-88
2023/04/25 12:01:36;;;;;;;11.20;4.00;;;10.00;99.90;;;;;;4906778;29;20222;-86
2023/04/25 12:04:13;;;;;;;3.53;3.22;;;10.00;99.90;;;;;;4912145;29;20198;-88
2023/04/25 12:06:40;;;;;;;3.60;3.30;;;9.90;99.90;;;;;;4912238;29;20239;-87
2023/04/25 12:09:08;;;;;;;4.32;3.92;;;10.30;99.90;;;;;;4914740;29;20195;-86
2023/04/25 12:11:45;;;;;;;5.55;4.57;;;9.40;99.90;;;;;;4911273;29;20559;-87
2023/04/25 12:14:11;;;;;;;3.97;3.67;;;10.00;99.90;;;;;;4916861;29;20222;-88
2023/04/25 12:16:44;;;;;;;5.78;4.00;;;10.10;99.90;;;;;;4920907;29;20244;-87
2023/04/25 12:19:14;;;;;;;4.50;4.10;;;9.60;99.90;;;;;;4920758;29;20188;-86
2023/04/25 12:21:40;;;;;;;3.78;3.47;;;9.80;99.90;;;;;;4919565;29;20227;-88
2023/04/25 12:24:26;;;;;;;5.10;3.80;;;9.80;99.90;;;;;;4921624;29;20255;-87
2023/04/25 12:27:04;;;;;;;4.45;3.88;;;10.00;99.90;;;;;;4930053;29;20184;-87
2023/04/25 12:29:31;;;;;;;4.20;3.85;;;10.50;99.90;;;;;;4922154;29;20614;-87
2023/04/25 12:31:57;;;;;;;6.20;4.95;;;9.90;99.90;;;;;;4915678;29;20590;-86
2023/04/25 12:34:23;;;;;;;6.00;4.75;;;9.40;99.90;;;;;;4921635;29;20230;-88
2023/04/25 12:36:50;;;;;;;6.82;4.82;;;10.10;99.90;;;;;;4920722;29;20184;-86
2023/04/25 12:39:17;;;;;;;4.80;4.40;;;10.20;99.90;;;;;;4915694;29;20286;-87
2023/04/25 12:41:46;;;;;;;4.10;3.80;;;10.50;99.90;;;;;;4918700;29;20209;-87
2023/04/25 12:44:12;;;;;;;4.03;3.72;;;10.20;99.90;;;;;;4926171;29;20187;-86
2023/04/25 12:46:38;;;;;;;5.55;4.35;;;10.30;99.90;;;;;;4920727;29;20715;-85
2023/04/25 12:49:04;;;;;;;4.60;4.20;;;10.70;99.90;;;;;;4919445;29;20202;-85
2023/04/25 12:51:32;;;;;;;5.32;4.82;;;11.00;99.90;;;;;;4922511;29;20233;-87